Time;durP1;ratioP1;P1;durP2;ratioP2;P2;SDS_P1;SDS_P2;PMS_P1;PMS_P2;Temp;Humidity;BMP_temperature;BMP_pressure;BME280_temperature;BME280_humidity;BME280_pressure;Samples;Min_cycle;Max_cycle;Signal;HPM_P1;HPM_P2
2022/03/23 00:02:07;;;;;;;;;;;6.50;74.40;;;;;;4959400;28;19978;-75
2022/03/23 00:04:34;;;;;;;;;;;6.50;73.50;;;;;;4956935;28;19926;-76
2022/03/23 00:07:01;;;;;;;;;;;6.40;74.00;;;;;;4963638;28;19941;-78
2022/03/23 00:09:28;;;;;;;;;;;6.30;73.90;;;;;;4961819;28;19926;-76
2022/03/23 00:11:55;;;;;;;;;;;6.30;74.10;;;;;;4948250;28;19934;-76
2022/03/23 00:14:21;;;;;;;;;;;6.30;73.70;;;;;;4963151;28;19930;-76
2022/03/23 00:16:49;;;;;;;;;;;6.30;74.20;;;;;;4953978;28;19934;-76
2022/03/23 00:19:17;;;;;;;;;;;6.20;73.60;;;;;;4959546;28;20001;-77
2022/03/23 00:21:44;;;;;;;;;;;6.20;72.90;;;;;;4959875;28;19934;-76
2022/03/23 00:24:11;;;;;;;;;;;6.10;73.90;;;;;;4953362;28;21041;-77
2022/03/23 00:26:38;;;;;;;;;;;6.10;74.10;;;;;;4958953;28;19942;-77
2022/03/23 00:29:05;;;;;;;;;;;6.10;74.00;;;;;;4965552;28;20962;-76
2022/03/23 00:31:34;;;;;;;;;;;6.00;74.10;;;;;;4959484;28;19926;-77
2022/03/23 00:34:01;;;;;;;;;;;6.00;74.10;;;;;;4965658;28;19934;-77
2022/03/23 00:36:30;;;;;;;;;;;5.90;74.20;;;;;;4962112;28;19931;-76
2022/03/23 00:38:57;;;;;;;;;;;5.80;73.80;;;;;;4964008;28;19936;-76
2022/03/23 00:41:24;;;;;;;;;;;5.80;73.60;;;;;;4945300;28;19930;-75
2022/03/23 00:43:50;;;;;;;;;;;5.80;74.00;;;;;;4978867;28;20372;-76
2022/03/23 00:46:17;;;;;;;;;;;5.80;73.50;;;;;;4963567;28;20021;-75
2022/03/23 00:48:44;;;;;;;;;;;5.80;74.20;;;;;;4961537;28;19926;-75
2022/03/23 00:51:11;;;;;;;;;;;5.70;73.70;;;;;;4963641;28;20056;-76
2022/03/23 00:53:40;;;;;;;;;;;5.60;72.90;;;;;;4962057;28;19949;-75
2022/03/23 00:56:07;;;;;;;;;;;5.50;72.90;;;;;;4978170;28;19930;-78
2022/03/23 00:58:35;;;;;;;;;;;5.50;73.10;;;;;;4966895;28;19980;-76
2022/03/23 01:01:02;;;;;;;;;;;5.50;73.30;;;;;;4964612;28;19993;-76
2022/03/23 01:03:30;;;;;;;;;;;5.40;73.90;;;;;;4979324;28;19933;-76
2022/03/23 01:05:57;;;;;;;;;;;5.30;72.00;;;;;;4967967;28;19934;-76
2022/03/23 01:08:24;;;;;;;;;;;5.20;71.90;;;;;;4973462;28;19973;-76
2022/03/23 01:10:53;;;;;;;;;;;5.10;72.00;;;;;;4957612;28;20018;-75
2022/03/23 01:13:21;;;;;;;;;;;5.10;72.30;;;;;;4977606;28;19930;-76
2022/03/23 01:15:48;;;;;;;;;;;5.10;73.20;;;;;;4977145;28;19940;-78
2022/03/23 01:18:15;;;;;;;;;;;5.10;72.30;;;;;;4962955;28;20360;-79
2022/03/23 01:20:42;;;;;;;;;;;5.00;72.10;;;;;;4963468;28;19932;-78
2022/03/23 01:23:09;;;;;;;;;;;5.10;72.90;;;;;;4963377;28;19993;-78
2022/03/23 01:25:36;;;;;;;;;;;5.10;71.40;;;;;;4977652;28;20009;-77
2022/03/23 01:28:05;;;;;;;;;;;5.10;71.50;;;;;;4973849;28;19956;-76
2022/03/23 01:30:32;;;;;;;;;;;5.10;71.60;;;;;;4961126;28;19934;-77
2022/03/23 01:32:59;;;;;;;;;;;5.10;71.90;;;;;;4960727;28;19926;-76
2022/03/23 01:35:28;;;;;;;;;;;5.10;71.20;;;;;;4972899;28;20404;-78
2022/03/23 01:37:55;;;;;;;;;;;5.10;71.60;;;;;;4961129;28;20673;-78
2022/03/23 01:40:22;;;;;;;;;;;5.10;72.70;;;;;;4964531;28;20016;-78
2022/03/23 01:42:49;;;;;;;;;;;5.10;71.80;;;;;;4977428;28;19942;-78
2022/03/23 01:45:19;;;;;;;;;;;5.10;71.60;;;;;;4965720;28;19993;-75
2022/03/23 01:47:46;;;;;;;;;;;5.00;71.70;;;;;;4976153;28;19937;-76
2022/03/23 01:50:13;;;;;;;;;;;5.00;71.70;;;;;;4959436;28;20345;-76
2022/03/23 01:52:40;;;;;;;;;;;5.00;72.90;;;;;;4958265;28;19945;-76
2022/03/23 01:55:08;;;;;;;;;;;5.00;72.20;;;;;;4977458;28;19930;-77
2022/03/23 01:57:36;;;;;;;;;;;5.00;72.80;;;;;;4970754;28;19930;-75
2022/03/23 02:00:05;;;;;;;;;;;5.10;73.40;;;;;;4960935;28;20627;-76
2022/03/23 02:02:41;;;;;;;;;;;5.10;73.70;;;;;;4957615;28;19941;-77
2022/03/23 02:05:11;;;;;;;;;;;5.10;73.40;;;;;;4939213;28;20006;-75
2022/03/23 02:07:38;;;;;;;;;;;5.10;73.50;;;;;;4960497;28;19930;-76
2022/03/23 02:10:06;;;;;;;;;;;5.10;73.40;;;;;;4964358;28;19926;-76
2022/03/23 02:12:46;;;;;;;;;;;5.10;73.60;;;;;;4960313;28;20024;-77
2022/03/23 02:15:14;;;;;;;;;;;5.10;73.20;;;;;;4975958;28;20467;-76
2022/03/23 02:17:43;;;;;;;;;;;5.10;72.70;;;;;;4983912;28;20292;-77
2022/03/23 02:20:11;;;;;;;;;;;5.00;73.60;;;;;;4975736;28;19934;-76
2022/03/23 02:22:40;;;;;;;;;;;5.00;73.70;;;;;;4947481;28;20372;-77
2022/03/23 02:25:08;;;;;;;;;;;5.00;73.90;;;;;;4953250;28;20380;-76
2022/03/23 02:27:36;;;;;;;;;;;5.00;74.10;;;;;;4948715;28;19929;-76
2022/03/23 02:30:03;;;;;;;;;;;5.00;74.10;;;;;;4956665;28;20446;-77
2022/03/23 02:32:30;;;;;;;;;;;5.00;73.80;;;;;;4962046;28;19930;-79
2022/03/23 02:34:57;;;;;;;;;;;5.00;72.60;;;;;;4959836;28;19926;-76
2022/03/23 02:37:24;;;;;;;;;;;5.00;72.30;;;;;;4958593;28;19930;-77
2022/03/23 02:39:52;;;;;;;;;;;5.00;73.00;;;;;;4960010;28;19926;-77
2022/03/23 02:42:19;;;;;;;;;;;5.00;72.60;;;;;;4964774;28;20608;-77
2022/03/23 02:44:46;;;;;;;;;;;5.00;72.70;;;;;;5049460;22;19985;-78
2022/03/23 02:47:13;;;;;;;;;;;5.00;73.50;;;;;;4962989;28;19937;-78
2022/03/23 02:49:40;;;;;;;;;;;4.90;72.90;;;;;;4986289;28;19925;-78
2022/03/23 02:52:07;;;;;;;;;;;4.80;73.10;;;;;;4965594;28;19926;-79
2022/03/23 03:03:14;;;;;;;;;;;4.70;73.70;;;;;;4946972;28;20388;-78
2022/03/23 03:05:41;;;;;;;;;;;4.70;73.90;;;;;;4969235;28;19926;-78
2022/03/23 03:10:53;;;;;;;;;;;4.70;73.60;;;;;;4989987;28;19922;-78
2022/03/23 03:13:21;;;;;;;;;;;4.60;73.60;;;;;;4981266;28;19926;-78
2022/03/23 03:15:48;;;;;;;;;;;4.60;73.40;;;;;;4986804;28;20307;-78
2022/03/23 03:18:15;;;;;;;;;;;4.60;73.30;;;;;;4967232;28;19992;-78
2022/03/23 03:20:42;;;;;;;;;;;4.50;73.50;;;;;;4979579;28;19939;-78
2022/03/23 03:23:11;;;;;;;;;;;4.50;73.90;;;;;;4960104;28;19926;-77
2022/03/23 03:25:38;;;;;;;;;;;4.40;73.90;;;;;;4983937;28;19933;-77
2022/03/23 03:28:05;;;;;;;;;;;4.40;74.00;;;;;;4964060;28;19925;-78
2022/03/23 03:30:34;;;;;;;;;;;4.40;74.20;;;;;;4984256;28;19930;-78
2022/03/23 03:36:23;;;;;;;;;;;4.30;74.00;;;;;;4980212;28;20415;-79
2022/03/23 03:38:50;;;;;;;;;;;4.30;74.40;;;;;;4983877;28;19941;-77
2022/03/23 03:41:18;;;;;;;;;;;4.30;74.70;;;;;;4983765;28;20597;-78
2022/03/23 03:43:44;;;;;;;;;;;4.30;74.50;;;;;;4982375;28;19952;-78
2022/03/23 03:46:13;;;;;;;;;;;4.30;74.50;;;;;;4961898;28;19941;-79
2022/03/23 03:48:41;;;;;;;;;;;4.30;74.60;;;;;;4963568;28;19948;-78
2022/03/23 03:51:08;;;;;;;;;;;4.30;75.00;;;;;;4987929;28;19937;-78
2022/03/23 03:53:35;;;;;;;;;;;4.30;74.90;;;;;;4968351;28;19926;-78
2022/03/23 03:56:02;;;;;;;;;;;4.30;75.00;;;;;;4982346;28;19926;-77
2022/03/23 03:58:29;;;;;;;;;;;4.20;75.10;;;;;;4967251;28;19929;-78
2022/03/23 04:00:56;;;;;;;;;;;4.20;75.20;;;;;;4983256;28;19932;-79
2022/03/23 04:03:24;;;;;;;;;;;4.20;75.40;;;;;;4994311;28;19933;-78
2022/03/23 04:05:51;;;;;;;;;;;4.20;74.90;;;;;;4969638;28;20643;-77
2022/03/23 04:08:18;;;;;;;;;;;4.20;74.80;;;;;;4973822;28;19936;-79
2022/03/23 04:10:45;;;;;;;;;;;4.20;74.60;;;;;;4985829;28;19926;-79
2022/03/23 04:13:12;;;;;;;;;;;4.20;74.30;;;;;;4970014;28;19945;-78
2022/03/23 04:15:39;;;;;;;;;;;4.20;74.30;;;;;;4965424;28;19960;-78
2022/03/23 04:18:07;;;;;;;;;;;4.20;74.30;;;;;;4967552;28;19988;-77
2022/03/23 04:20:36;;;;;;;;;;;4.20;74.70;;;;;;4986105;28;19926;-78
2022/03/23 04:23:03;;;;;;;;;;;4.10;74.60;;;;;;4982269;28;19936;-78
2022/03/23 04:25:30;;;;;;;;;;;4.10;74.80;;;;;;4984300;28;20008;-78
2022/03/23 04:27:58;;;;;;;;;;;4.10;75.00;;;;;;4968139;28;20359;-78
2022/03/23 04:30:27;;;;;;;;;;;4.10;75.30;;;;;;4970872;28;20304;-78
2022/03/23 04:32:54;;;;;;;;;;;4.10;75.40;;;;;;4970692;28;20412;-78
2022/03/23 04:35:22;;;;;;;;;;;4.00;75.30;;;;;;4973521;28;19930;-78
2022/03/23 04:37:51;;;;;;;;;;;4.00;75.60;;;;;;4966911;28;19925;-78
2022/03/23 04:40:18;;;;;;;;;;;4.00;75.40;;;;;;4972335;28;19930;-78
2022/03/23 04:42:46;;;;;;;;;;;4.00;75.20;;;;;;4997106;28;19933;-78
2022/03/23 04:45:14;;;;;;;;;;;4.00;75.00;;;;;;4987840;28;19926;-79
2022/03/23 04:47:41;;;;;;;;;;;4.00;75.40;;;;;;5008369;28;19961;-79
2022/03/23 04:50:09;;;;;;;;;;;4.00;75.00;;;;;;4989218;28;20028;-79
2022/03/23 04:52:37;;;;;;;;;;;4.00;75.50;;;;;;4974142;28;19926;-79
2022/03/23 04:55:06;;;;;;;;;;;4.00;75.30;;;;;;4975234;28;20032;-78
2022/03/23 04:57:33;;;;;;;;;;;3.90;75.20;;;;;;4978611;28;20043;-79
2022/03/23 05:00:00;;;;;;;;;;;4.00;75.00;;;;;;4992147;28;19926;-79
2022/03/23 05:02:27;;;;;;;;;;;3.90;75.90;;;;;;4991746;28;19933;-79
2022/03/23 05:04:54;;;;;;;;;;;3.90;75.80;;;;;;4980269;28;20295;-78
2022/03/23 05:07:20;;;;;;;;;;;3.90;75.90;;;;;;4998529;28;20423;-79
2022/03/23 05:09:47;;;;;;;;;;;3.90;75.80;;;;;;4995983;28;20541;-78
2022/03/23 05:12:16;;;;;;;;;;;3.90;75.90;;;;;;4995505;28;20316;-78
2022/03/23 05:14:43;;;;;;;;;;;3.90;76.00;;;;;;4987385;28;20397;-78
2022/03/23 05:17:09;;;;;;;;;;;3.90;76.10;;;;;;4995599;28;19934;-78
2022/03/23 05:19:36;;;;;;;;;;;3.90;76.00;;;;;;4977112;28;19992;-77
2022/03/23 05:22:03;;;;;;;;;;;3.90;76.00;;;;;;4991874;28;19934;-78
2022/03/23 05:24:30;;;;;;;;;;;3.90;75.90;;;;;;4975360;28;20344;-77
2022/03/23 05:26:57;;;;;;;;;;;4.00;76.10;;;;;;4988989;28;20384;-78
2022/03/23 05:29:25;;;;;;;;;;;4.00;76.10;;;;;;4992954;28;19925;-77
2022/03/23 05:31:52;;;;;;;;;;;4.00;76.00;;;;;;4974695;28;20443;-77
2022/03/23 05:34:19;;;;;;;;;;;4.00;76.20;;;;;;4969292;28;19930;-78
2022/03/23 05:36:46;;;;;;;;;;;3.90;76.30;;;;;;4965018;28;19930;-78
2022/03/23 05:39:13;;;;;;;;;;;3.90;76.40;;;;;;4990996;28;19933;-78
2022/03/23 05:41:40;;;;;;;;;;;3.90;76.50;;;;;;4986527;28;19933;-77
2022/03/23 05:44:07;;;;;;;;;;;3.80;76.40;;;;;;4984990;28;20458;-78
2022/03/23 05:46:36;;;;;;;;;;;3.80;76.50;;;;;;4989334;28;19926;-78
2022/03/23 05:49:03;;;;;;;;;;;3.80;76.70;;;;;;4991993;28;19976;-78
2022/03/23 05:51:30;;;;;;;;;;;3.80;76.70;;;;;;4980098;28;20013;-77
2022/03/23 05:53:57;;;;;;;;;;;3.80;76.70;;;;;;4985189;28;19926;-78
2022/03/23 05:56:23;;;;;;;;;;;3.80;76.80;;;;;;4988652;28;19996;-77
2022/03/23 05:58:50;;;;;;;;;;;3.80;76.80;;;;;;4983392;28;19936;-77
2022/03/23 06:01:17;;;;;;;;;;;3.80;76.90;;;;;;4963586;28;19932;-78
2022/03/23 06:03:49;;;;;;;;;;;3.80;76.80;;;;;;4969801;28;20359;-78
2022/03/23 06:06:16;;;;;;;;;;;3.80;77.00;;;;;;4984940;28;20568;-77
2022/03/23 06:08:43;;;;;;;;;;;3.80;77.10;;;;;;4983972;28;19984;-77
2022/03/23 06:11:10;;;;;;;;;;;3.70;77.00;;;;;;4988879;28;20411;-77
2022/03/23 06:13:37;;;;;;;;;;;3.80;77.80;;;;;;4988663;28;20381;-78
2022/03/23 06:16:04;;;;;;;;;;;3.70;77.10;;;;;;4986956;28;19926;-78
2022/03/23 06:18:31;;;;;;;;;;;3.70;77.20;;;;;;4987099;28;20292;-77
2022/03/23 06:21:00;;;;;;;;;;;3.80;77.30;;;;;;4986400;28;20434;-78
2022/03/23 06:23:27;;;;;;;;;;;3.80;77.30;;;;;;4969816;28;19932;-78
2022/03/23 06:25:54;;;;;;;;;;;3.80;77.30;;;;;;4987161;28;20579;-78
2022/03/23 06:28:21;;;;;;;;;;;3.70;77.30;;;;;;4989487;28;19930;-79
2022/03/23 06:30:48;;;;;;;;;;;3.70;77.30;;;;;;4968895;28;19934;-77
2022/03/23 06:33:15;;;;;;;;;;;3.70;77.30;;;;;;4989102;28;20432;-78
2022/03/23 06:35:42;;;;;;;;;;;3.70;77.50;;;;;;4987918;28;19929;-78
2022/03/23 06:38:11;;;;;;;;;;;3.70;77.40;;;;;;4982091;28;19940;-77
2022/03/23 06:40:38;;;;;;;;;;;3.70;77.60;;;;;;4985866;28;20046;-78
2022/03/23 06:43:05;;;;;;;;;;;3.70;77.70;;;;;;4971187;28;19930;-78
2022/03/23 06:45:32;;;;;;;;;;;3.70;77.90;;;;;;4966353;28;20009;-77
2022/03/23 06:50:28;;;;;;;;;;;3.60;78.00;;;;;;4998942;23;19926;-78
2022/03/23 06:52:54;;;;;;;;;;;3.70;78.20;;;;;;4968367;28;19926;-78
2022/03/23 06:55:23;;;;;;;;;;;3.60;78.20;;;;;;4954068;28;19976;-78
2022/03/23 06:57:50;;;;;;;;;;;3.60;78.30;;;;;;4953280;28;19930;-78
2022/03/23 07:00:17;;;;;;;;;;;3.60;78.40;;;;;;4970534;28;20514;-79
2022/03/23 07:02:44;;;;;;;;;;;3.60;78.70;;;;;;4969567;28;20278;-78
2022/03/23 07:05:12;;;;;;;;;;;3.60;78.80;;;;;;4968712;28;19926;-79
2022/03/23 07:09:30;;;;;;;;;;;3.70;79.20;;;;;;4975648;28;19977;-78
2022/03/23 07:10:26;;;;;;;;;;;3.60;79.10;;;;;;4969720;28;19934;-78
2022/03/23 07:12:53;;;;;;;;;;;3.60;79.10;;;;;;4972826;28;19982;-78
2022/03/23 07:15:20;;;;;;;;;;;3.70;79.30;;;;;;4964276;28;19934;-77
2022/03/23 07:17:47;;;;;;;;;;;3.70;79.20;;;;;;4967399;28;20575;-78
2022/03/23 07:20:14;;;;;;;;;;;3.70;79.10;;;;;;4951203;28;19926;-78
2022/03/23 07:22:41;;;;;;;;;;;3.70;79.10;;;;;;4956712;28;20343;-78
2022/03/23 07:25:08;;;;;;;;;;;3.70;79.10;;;;;;4973039;28;19926;-78
2022/03/23 07:27:36;;;;;;;;;;;3.70;79.10;;;;;;4970329;28;20050;-78
2022/03/23 07:30:04;;;;;;;;;;;3.70;79.20;;;;;;4952844;28;19985;-78
2022/03/23 07:32:31;;;;;;;;;;;3.70;79.10;;;;;;4971171;28;19936;-78
2022/03/23 07:34:58;;;;;;;;;;;3.70;79.20;;;;;;4972678;28;20009;-78
2022/03/23 07:37:24;;;;;;;;;;;3.80;79.30;;;;;;4971945;28;20353;-78
2022/03/23 07:39:52;;;;;;;;;;;3.80;79.30;;;;;;4970407;28;19926;-78
2022/03/23 07:42:19;;;;;;;;;;;3.80;79.20;;;;;;4974089;28;19926;-78
2022/03/23 07:44:48;;;;;;;;;;;3.80;79.40;;;;;;4975714;28;20009;-78
2022/03/23 07:47:15;;;;;;;;;;;3.80;79.40;;;;;;4967651;28;19933;-79
2022/03/23 07:49:42;;;;;;;;;;;3.80;79.40;;;;;;4970485;28;19925;-78
2022/03/23 07:52:08;;;;;;;;;;;3.90;79.60;;;;;;4973597;28;20020;-79
2022/03/23 07:54:35;;;;;;;;;;;3.90;79.60;;;;;;4975314;28;19930;-79
2022/03/23 07:57:02;;;;;;;;;;;3.90;79.70;;;;;;4966685;28;19953;-78
2022/03/23 07:59:29;;;;;;;;;;;3.90;79.70;;;;;;4969939;28;20372;-78
2022/03/23 08:01:58;;;;;;;;;;;3.90;79.90;;;;;;4973626;28;19933;-78
2022/03/23 08:04:24;;;;;;;;;;;3.90;80.30;;;;;;4968700;28;19926;-79
2022/03/23 08:06:51;;;;;;;;;;;3.90;80.10;;;;;;4973811;28;19958;-78
2022/03/23 08:09:18;;;;;;;;;;;3.90;80.20;;;;;;4973547;28;19926;-78
2022/03/23 08:11:45;;;;;;;;;;;3.90;80.20;;;;;;4956308;28;19926;-78
2022/03/23 08:14:12;;;;;;;;;;;4.00;80.40;;;;;;4977790;28;19930;-78
2022/03/23 08:16:39;;;;;;;;;;;4.00;80.40;;;;;;4953777;28;20034;-78
2022/03/23 08:19:07;;;;;;;;;;;4.00;80.50;;;;;;4974031;28;19930;-78
2022/03/23 08:21:34;;;;;;;;;;;4.00;80.50;;;;;;4960287;28;19932;-78
2022/03/23 08:24:01;;;;;;;;;;;4.00;80.60;;;;;;4968051;28;19945;-78
2022/03/23 08:26:28;;;;;;;;;;;4.10;80.70;;;;;;4958200;28;19941;-78
2022/03/23 08:28:55;;;;;;;;;;;4.10;80.60;;;;;;4963231;28;19937;-79
2022/03/23 08:31:23;;;;;;;;;;;4.10;80.50;;;;;;4989768;28;19932;-79
2022/03/23 08:33:50;;;;;;;;;;;4.10;81.00;;;;;;4994108;28;19922;-78
2022/03/23 08:36:18;;;;;;;;;;;4.10;80.40;;;;;;4972877;28;19930;-79
2022/03/23 08:38:45;;;;;;;;;;;4.20;80.00;;;;;;4971136;28;19932;-78
2022/03/23 08:41:13;;;;;;;;;;;4.20;79.90;;;;;;4971208;28;19935;-79
2022/03/23 08:43:41;;;;;;;;;;;4.20;80.30;;;;;;4971763;28;20435;-78
2022/03/23 08:46:12;;;;;;;;;;;4.30;80.30;;;;;;4974644;28;19984;-78
2022/03/23 08:48:39;;;;;;;;;;;4.20;79.90;;;;;;4952873;28;19926;-78
2022/03/23 08:51:06;;;;;;;;;;;4.30;80.30;;;;;;4968543;28;19938;-78
2022/03/23 08:53:34;;;;;;;;;;;4.30;80.30;;;;;;4971837;28;20371;-78
2022/03/23 08:56:01;;;;;;;;;;;4.30;80.00;;;;;;4973195;28;19926;-78
2022/03/23 08:58:28;;;;;;;;;;;4.30;80.20;;;;;;4951260;28;19926;-79
2022/03/23 09:00:54;;;;;;;;;;;4.40;80.00;;;;;;4974558;28;19926;-78
2022/03/23 09:03:21;;;;;;;;;;;4.40;80.20;;;;;;4963847;28;19934;-78
2022/03/23 09:05:48;;;;;;;;;;;4.50;80.20;;;;;;4976313;28;19926;-79
2022/03/23 09:08:15;;;;;;;;;;;4.50;80.10;;;;;;4978536;28;20013;-78
2022/03/23 09:10:43;;;;;;;;;;;4.50;80.10;;;;;;4971552;28;20413;-78
2022/03/23 09:13:10;;;;;;;;;;;4.50;80.40;;;;;;4977065;28;19934;-77
2022/03/23 09:15:37;;;;;;;;;;;4.60;80.40;;;;;;4971836;28;19926;-77
2022/03/23 09:18:04;;;;;;;;;;;4.60;80.40;;;;;;4956547;28;19930;-78
2022/03/23 09:20:32;;;;;;;;;;;4.70;80.60;;;;;;4960537;28;20090;-78
2022/03/23 09:22:59;;;;;;;;;;;4.70;80.70;;;;;;4964524;28;20146;-78
2022/03/23 09:25:26;;;;;;;;;;;4.80;80.70;;;;;;4974059;28;20463;-78
2022/03/23 09:27:54;;;;;;;;;;;4.80;80.90;;;;;;4971836;28;20352;-78
2022/03/23 09:30:21;;;;;;;;;;;4.80;81.00;;;;;;4957731;28;19934;-78
2022/03/23 09:32:48;;;;;;;;;;;4.80;81.20;;;;;;4969590;28;19934;-78
2022/03/23 09:35:16;;;;;;;;;;;4.90;81.40;;;;;;4980993;28;19957;-78
2022/03/23 09:37:47;;;;;;;;;;;5.00;81.10;;;;;;4969547;28;20377;-78
2022/03/23 09:40:15;;;;;;;;;;;5.10;81.20;;;;;;4956513;28;19975;-79
2022/03/23 09:42:43;;;;;;;;;;;5.10;80.90;;;;;;4956855;28;19925;-78
2022/03/23 09:45:15;;;;;;;;;;;5.10;81.10;;;;;;4972649;28;19930;-79
2022/03/23 09:47:42;;;;;;;;;;;5.10;81.10;;;;;;4969614;28;20328;-79
2022/03/23 09:50:09;;;;;;;;;;;5.20;81.20;;;;;;4957698;28;19973;-79
2022/03/23 09:52:36;;;;;;;;;;;5.30;81.30;;;;;;4954424;28;19930;-79
2022/03/23 09:55:04;;;;;;;;;;;5.30;80.80;;;;;;4970772;28;20348;-79
2022/03/23 09:57:31;;;;;;;;;;;5.30;81.10;;;;;;4952224;28;20459;-78
2022/03/23 09:59:58;;;;;;;;;;;5.30;81.30;;;;;;4973918;28;20617;-79
2022/03/23 10:02:53;;;;;;;;;;;5.40;81.30;;;;;;4968888;28;19926;-78
2022/03/23 10:05:44;;;;;;;;;;;5.40;81.20;;;;;;4972958;28;19933;-78
2022/03/23 10:08:48;;;;;;;;;;;5.50;81.30;;;;;;4968753;28;20381;-78
2022/03/23 10:11:45;;;;;;;;;;;5.50;81.20;;;;;;4970163;28;20290;-78
2022/03/23 10:14:29;;;;;;;;;;;5.60;81.40;;;;;;4959099;28;19936;-78
2022/03/23 10:17:15;;;;;;;;;;;5.90;80.60;;;;;;4978808;28;19977;-78
2022/03/23 10:19:44;;;;;;;;;;;5.90;80.90;;;;;;4965277;28;19933;-78
2022/03/23 10:22:12;;;;;;;;;;;5.80;81.40;;;;;;4970371;28;19930;-78
2022/03/23 10:24:40;;;;;;;;;;;5.80;80.90;;;;;;4975550;28;19968;-78
2022/03/23 10:27:08;;;;;;;;;;;5.80;81.10;;;;;;4950996;28;19934;-78
2022/03/23 10:29:39;;;;;;;;;;;5.80;81.40;;;;;;4947702;28;19938;-78
2022/03/23 10:32:08;;;;;;;;;;;5.80;81.80;;;;;;4972413;28;19949;-78
2022/03/23 10:34:47;;;;;;;;;;;5.90;81.40;;;;;;4970554;28;19933;-78
2022/03/23 10:37:14;;;;;;;;;;;5.90;81.40;;;;;;4969131;28;19930;-78
2022/03/23 10:39:41;;;;;;;;;;;6.00;81.20;;;;;;4970677;28;19937;-78
2022/03/23 10:42:10;;;;;;;;;;;6.10;81.50;;;;;;4970257;28;19930;-78
2022/03/23 10:44:37;;;;;;;;;;;6.10;81.30;;;;;;4968753;28;20101;-78
2022/03/23 10:47:04;;;;;;;;;;;6.10;81.50;;;;;;4970261;28;20307;-78
2022/03/23 10:49:32;;;;;;;;;;;6.10;81.60;;;;;;4973761;28;19973;-78
2022/03/23 10:52:09;;;;;;;;;;;6.20;81.50;;;;;;4965542;28;20340;-79
2022/03/23 10:54:36;;;;;;;;;;;6.20;81.90;;;;;;4965222;23;19926;-83
2022/03/23 10:57:03;;;;;;;;;;;6.30;81.70;;;;;;4962126;28;22713;-80
2022/03/23 11:00:01;;;;;;;;;;;6.30;81.80;;;;;;4969913;28;19926;-81
2022/03/23 11:02:28;;;;;;;;;;;6.40;81.80;;;;;;4963014;28;19927;-81
2022/03/23 11:04:56;;;;;;;;;;;6.40;81.50;;;;;;4966765;28;19934;-81
2022/03/23 11:07:25;;;;;;;;;;;6.40;81.50;;;;;;4951435;28;20440;-81
2022/03/23 11:18:07;;;;;;;;;;;6.70;81.30;;;;;;4954050;28;19935;-80
2022/03/23 11:20:41;;;;;;;;;;;6.70;81.60;;;;;;4954284;28;19927;-80
2022/03/23 11:23:18;;;;;;;;;;;6.70;81.80;;;;;;4931889;29;19927;-81
2022/03/23 11:25:45;;;;;;;;;;;6.80;81.80;;;;;;4955044;28;20005;-79
2022/03/23 11:28:13;;;;;;;;;;;6.80;81.50;;;;;;4936741;28;19957;-80
2022/03/23 11:30:40;;;;;;;;;;;6.80;81.90;;;;;;4950463;28;19935;-79
2022/03/23 11:33:08;;;;;;;;;;;6.90;81.80;;;;;;4950332;28;20401;-79
2022/03/23 11:35:36;;;;;;;;;;;7.00;81.50;;;;;;4952920;28;19954;-81
2022/03/23 11:38:05;;;;;;;;;;;7.00;81.50;;;;;;4946383;28;19935;-79
2022/03/23 11:40:33;;;;;;;;;;;7.10;81.50;;;;;;4930507;29;19933;-80
2022/03/23 11:43:00;;;;;;;;;;;7.10;81.80;;;;;;4952945;28;19985;-81
2022/03/23 11:45:27;;;;;;;;;;;7.20;82.50;;;;;;4939410;29;19988;-79
2022/03/23 11:47:58;;;;;;;;;;;7.10;81.50;;;;;;4945590;28;19931;-80
2022/03/23 11:50:30;;;;;;;;;;;7.20;81.90;;;;;;4938587;28;19990;-79
2022/03/23 11:52:59;;;;;;;;;;;7.20;81.80;;;;;;4936873;28;19930;-79
2022/03/23 11:55:40;;;;;;;;;;;7.30;82.40;;;;;;4951327;28;20009;-80
2022/03/23 11:58:21;;;;;;;;;;;7.30;81.70;;;;;;4952793;28;19930;-79
2022/03/23 12:00:51;;;;;;;;;;;7.40;81.90;;;;;;4948814;28;19926;-79
2022/03/23 12:03:48;;;;;;;;;;;7.40;82.00;;;;;;4934704;28;19942;-79
2022/03/23 12:06:16;;;;;;;;;;;7.40;81.90;;;;;;4890815;29;19935;-79
2022/03/23 12:08:48;;;;;;;;;;;7.50;82.20;;;;;;4921783;28;19930;-78
2022/03/23 12:11:33;;;;;;;;;;;7.60;82.70;;;;;;4954442;28;19926;-80
2022/03/23 12:14:02;;;;;;;;;;;7.60;82.70;;;;;;4951010;28;19970;-81
2022/03/23 12:16:48;;;;;;;;;;;7.70;82.70;;;;;;4950468;28;20376;-81
2022/03/23 12:19:17;;;;;;;;;;;8.10;80.70;;;;;;4949269;28;20025;-80
2022/03/23 12:21:48;;;;;;;;;;;8.10;81.70;;;;;;4953085;28;19931;-78
2022/03/23 12:24:20;;;;;;;;;;;8.00;82.10;;;;;;4949648;28;19938;-77
2022/03/23 12:26:51;;;;;;;;;;;8.10;82.40;;;;;;4935467;28;19969;-79
2022/03/23 12:29:22;;;;;;;;;;;8.10;82.50;;;;;;4954293;28;19954;-79
2022/03/23 12:31:49;;;;;;;;;;;8.20;82.90;;;;;;4953397;28;19927;-77
2022/03/23 12:34:18;;;;;;;;;;;8.20;83.00;;;;;;4952727;28;20030;-78
2022/03/23 12:36:59;;;;;;;;;;;8.20;83.20;;;;;;4954301;28;20191;-79
2022/03/23 12:39:30;;;;;;;;;;;8.30;83.00;;;;;;4952222;28;20372;-79
2022/03/23 12:41:57;;;;;;;;;;;9.90;74.60;;;;;;4951399;28;20320;-78
2022/03/23 12:44:29;;;;;;;;;;;11.70;71.00;;;;;;4955963;28;20385;-79
2022/03/23 12:46:57;;;;;;;;;;;12.60;65.70;;;;;;4950048;28;19934;-79
2022/03/23 12:58:01;;;;;;;;;;;14.00;63.10;;;;;;4955659;28;20017;-78
2022/03/23 13:00:32;;;;;;;;;;;14.50;69.20;;;;;;4947403;28;20798;-78
2022/03/23 13:03:23;;;;;;;;;;;14.70;63.80;;;;;;4951885;28;19961;-78
2022/03/23 13:06:07;;;;;;;;;;;14.80;64.70;;;;;;4951333;28;19954;-76
2022/03/23 13:08:46;;;;;;;;;;;14.60;65.20;;;;;;4945379;28;19933;-78
2022/03/23 13:11:13;;;;;;;;;;;14.70;63.90;;;;;;4954396;28;20447;-77
2022/03/23 13:13:40;;;;;;;;;;;14.90;62.90;;;;;;4936405;28;19927;-79
2022/03/23 13:16:11;;;;;;;;;;;15.00;63.00;;;;;;4951423;28;19934;-77
2022/03/23 13:18:37;;;;;;;;;;;14.90;66.80;;;;;;4955848;28;19974;-79
2022/03/23 13:21:08;;;;;;;;;;;14.90;65.20;;;;;;4955971;28;19926;-79
2022/03/23 13:23:35;;;;;;;;;;;15.00;63.90;;;;;;4949869;28;19965;-79
2022/03/23 13:26:03;;;;;;;;;;;15.20;63.60;;;;;;4961027;28;19926;-77
2022/03/23 13:28:32;;;;;;;;;;;15.30;60.60;;;;;;4953406;28;20392;-80
2022/03/23 13:30:59;;;;;;;;;;;15.30;60.20;;;;;;4949826;28;19934;-78
2022/03/23 13:33:35;;;;;;;;;;;15.10;58.80;;;;;;4949813;28;19926;-78
2022/03/23 13:36:02;;;;;;;;;;;15.30;58.00;;;;;;4948031;28;19927;-78
2022/03/23 13:38:33;;;;;;;;;;;15.40;57.10;;;;;;4954622;28;20379;-77
2022/03/23 13:43:45;;;;;;;;;;;15.60;58.80;;;;;;4945788;28;19930;-78
2022/03/23 13:46:11;;;;;;;;;;;15.50;56.10;;;;;;4949807;28;20496;-78
2022/03/23 13:48:40;;;;;;;;;;;15.30;52.50;;;;;;4944372;28;19962;-76
2022/03/23 13:51:06;;;;;;;;;;;15.50;54.40;;;;;;4945385;28;19934;-76
2022/03/23 13:53:33;;;;;;;;;;;15.70;57.40;;;;;;4940021;28;19934;-80
2022/03/23 13:56:00;;;;;;;;;;;15.90;57.10;;;;;;4951938;28;19937;-79
2022/03/23 13:58:27;;;;;;;;;;;15.70;53.90;;;;;;4946820;28;20452;-78
2022/03/23 14:00:56;;;;;;;;;;;15.80;57.60;;;;;;4947112;28;20005;-76
2022/03/23 14:03:24;;;;;;;;;;;16.00;58.00;;;;;;4942241;28;19957;-78
2022/03/23 14:06:06;;;;;;;;;;;16.00;56.70;;;;;;4944802;28;19962;-77
2022/03/23 14:08:34;;;;;;;;;;;16.00;56.30;;;;;;4945900;28;19934;-78
2022/03/23 14:11:01;;;;;;;;;;;16.20;56.10;;;;;;4929343;28;19962;-77
2022/03/23 14:13:29;;;;;;;;;;;16.10;51.40;;;;;;4954904;28;20024;-77
2022/03/23 14:15:57;;;;;;;;;;;16.20;51.90;;;;;;4957439;28;19926;-78
2022/03/23 14:18:24;;;;;;;;;;;16.20;52.40;;;;;;4949749;28;19937;-76
2022/03/23 14:20:52;;;;;;;;;;;16.20;49.80;;;;;;4947556;28;19930;-76
2022/03/23 14:23:21;;;;;;;;;;;15.80;55.40;;;;;;4954758;28;19926;-77
2022/03/23 14:25:48;;;;;;;;;;;15.50;58.30;;;;;;4948615;28;19933;-77
2022/03/23 14:28:20;;;;;;;;;;;15.40;58.80;;;;;;4946956;28;19927;-77
2022/03/23 14:30:49;;;;;;;;;;;15.30;61.50;;;;;;4945087;28;19934;-77
2022/03/23 14:33:19;;;;;;;;;;;15.20;63.30;;;;;;4946544;28;20002;-76
2022/03/23 14:35:46;;;;;;;;;;;15.10;64.90;;;;;;4943953;28;19926;-76
2022/03/23 14:38:14;;;;;;;;;;;15.00;65.40;;;;;;4950292;28;19926;-76
2022/03/23 14:40:50;;;;;;;;;;;14.90;66.40;;;;;;4948518;28;19927;-76
2022/03/23 14:43:28;;;;;;;;;;;14.80;66.90;;;;;;4931308;29;19977;-77
2022/03/23 14:45:56;;;;;;;;;;;14.80;67.60;;;;;;4928219;28;19927;-76
2022/03/23 14:48:25;;;;;;;;;;;14.80;68.00;;;;;;4945517;28;19986;-76
2022/03/23 14:50:53;;;;;;;;;;;14.90;67.10;;;;;;4950592;28;19989;-76
2022/03/23 14:53:21;;;;;;;;;;;15.00;68.20;;;;;;4934312;28;20286;-76
2022/03/23 14:55:50;;;;;;;;;;;15.00;68.80;;;;;;4950833;28;19927;-77
2022/03/23 14:58:24;;;;;;;;;;;14.90;69.60;;;;;;4948198;28;19930;-76
2022/03/23 15:00:51;;;;;;;;;;;14.80;70.20;;;;;;4944869;28;20419;-76
2022/03/23 15:03:18;;;;;;;;;;;14.80;70.40;;;;;;4947340;28;19937;-76
2022/03/23 15:14:00;;;;;;;;;;;14.80;72.00;;;;;;4943798;28;19930;-77
2022/03/23 15:16:27;;;;;;;;;;;14.70;71.90;;;;;;4944559;28;19927;-77
2022/03/23 15:18:53;;;;;;;;;;;14.70;72.60;;;;;;4951476;28;19934;-77
2022/03/23 15:21:20;;;;;;;;;;;14.80;72.70;;;;;;4956043;28;19962;-76
2022/03/23 15:23:49;;;;;;;;;;;14.80;72.90;;;;;;4949329;28;20393;-77